Time;durP1;ratioP1;P1;durP2;ratioP2;P2;SDS_P1;SDS_P2;PMS_P1;PMS_P2;Temp;Humidity;BMP_temperature;BMP_pressure;BME280_temperature;BME280_humidity;BME280_pressure;Samples;Min_cycle;Max_cycle;Signal;HPM_P1;HPM_P2
2021/06/06 00:01:18;;;;;;;24.43;21.37;;;16.70;93.70;;;;;;5113821;28;20815;-71
2021/06/06 00:03:48;;;;;;;26.17;22.37;;;16.70;93.80;;;;;;5113823;28;20436;-71
2021/06/06 00:06:18;;;;;;;25.00;21.50;;;16.60;94.00;;;;;;5113820;28;20839;-71
2021/06/06 00:08:45;;;;;;;24.00;21.07;;;16.60;94.10;;;;;;5113465;28;20999;-71
2021/06/06 00:11:14;;;;;;;25.90;22.50;;;16.60;94.00;;;;;;5113520;28;20443;-71
2021/06/06 00:13:41;;;;;;;23.53;21.00;;;16.60;93.90;;;;;;5113769;28;20848;-71
2021/06/06 00:16:09;;;;;;;24.47;20.07;;;16.60;94.00;;;;;;5113745;28;20459;-71
2021/06/06 00:18:36;;;;;;;20.90;18.83;;;16.60;94.00;;;;;;5113594;28;20462;-71
2021/06/06 00:21:04;;;;;;;21.33;19.13;;;16.70;93.90;;;;;;5113346;28;20929;-71
2021/06/06 00:23:32;;;;;;;21.37;19.03;;;16.60;93.80;;;;;;5113650;28;20449;-71
2021/06/06 00:25:58;;;;;;;20.33;18.23;;;16.60;93.90;;;;;;5113646;28;20516;-71
2021/06/06 00:28:25;;;;;;;22.77;20.40;;;16.70;93.90;;;;;;5113569;28;20466;-72
2021/06/06 00:30:51;;;;;;;21.40;19.20;;;16.70;94.00;;;;;;5113616;28;20439;-72
2021/06/06 00:33:17;;;;;;;21.63;17.80;;;16.80;93.80;;;;;;5113516;28;20535;-72
2021/06/06 00:35:43;;;;;;;21.97;19.73;;;16.80;93.90;;;;;;5113585;28;20537;-72
2021/06/06 00:38:11;;;;;;;20.93;18.73;;;16.80;93.80;;;;;;5113656;28;20454;-71
2021/06/06 00:40:37;;;;;;;21.60;19.40;;;16.90;93.80;;;;;;5114690;28;20446;-71
2021/06/06 00:43:05;;;;;;;20.80;18.60;;;16.80;93.50;;;;;;5117095;28;20917;-71
2021/06/06 00:45:34;;;;;;;24.50;19.20;;;16.80;93.60;;;;;;5117170;28;20450;-71
2021/06/06 00:48:01;;;;;;;20.00;17.90;;;16.80;93.60;;;;;;5117340;28;20485;-71
2021/06/06 00:50:31;;;;;;;20.60;18.50;;;16.70;93.60;;;;;;5117018;28;20474;-72
2021/06/06 00:53:02;;;;;;;20.23;18.20;;;16.70;93.70;;;;;;5117355;28;20471;-72
2021/06/06 00:55:31;;;;;;;18.93;16.90;;;16.70;93.70;;;;;;5117542;28;20504;-72
2021/06/06 00:58:00;;;;;;;20.70;18.73;;;16.70;93.60;;;;;;5117517;28;20442;-71
2021/06/06 01:00:31;;;;;;;20.27;18.17;;;16.70;93.60;;;;;;5116986;28;20458;-72
2021/06/06 01:02:58;;;;;;;20.10;18.00;;;16.70;93.60;;;;;;5117240;28;20419;-72
2021/06/06 01:05:28;;;;;;;19.33;17.30;;;16.70;93.70;;;;;;5117028;28;20431;-72
2021/06/06 01:07:55;;;;;;;18.63;16.63;;;16.60;93.80;;;;;;5116875;28;20423;-71
2021/06/06 01:10:22;;;;;;;20.70;18.63;;;16.60;93.70;;;;;;5116807;28;20446;-71
2021/06/06 01:12:56;;;;;;;20.33;18.23;;;16.70;93.50;;;;;;5116798;28;20467;-71
2021/06/06 01:15:26;;;;;;;21.70;19.27;;;16.70;93.60;;;;;;5116733;28;20435;-72
2021/06/06 01:17:59;;;;;;;18.93;16.93;;;16.70;93.60;;;;;;5116655;28;20462;-71
2021/06/06 01:20:36;;;;;;;20.20;18.10;;;16.70;93.50;;;;;;5116677;28;20435;-71
2021/06/06 01:23:15;;;;;;;18.77;16.70;;;16.70;93.50;;;;;;5116639;28;20427;-72
2021/06/06 01:25:46;;;;;;;21.10;18.90;;;16.70;93.50;;;;;;5117177;28;20426;-72
2021/06/06 01:28:17;;;;;;;21.03;18.63;;;16.60;93.60;;;;;;5116456;28;20459;-71
2021/06/06 01:30:46;;;;;;;20.60;18.30;;;16.50;93.60;;;;;;5116450;28;20423;-71
2021/06/06 01:33:17;;;;;;;27.10;20.27;;;16.50;93.60;;;;;;5116368;28;20486;-71
2021/06/06 01:35:47;;;;;;;24.17;18.67;;;16.50;93.90;;;;;;5116384;28;20423;-71
2021/06/06 01:38:18;;;;;;;21.67;19.17;;;16.40;94.00;;;;;;5116312;28;20865;-71
2021/06/06 01:40:47;;;;;;;21.13;18.93;;;16.40;94.00;;;;;;5116306;28;20427;-72
2021/06/06 01:43:17;;;;;;;22.10;19.70;;;16.40;94.00;;;;;;5117049;28;20447;-72
2021/06/06 01:45:46;;;;;;;23.93;19.80;;;16.40;94.00;;;;;;5116250;28;20451;-72
2021/06/06 01:48:15;;;;;;;20.47;18.10;;;16.40;93.90;;;;;;5116115;28;20462;-71
2021/06/06 01:50:44;;;;;;;22.47;20.17;;;16.50;93.90;;;;;;5116129;28;20435;-72
2021/06/06 01:53:14;;;;;;;25.57;19.03;;;16.50;93.90;;;;;;5114735;28;20840;-72
2021/06/06 01:55:43;;;;;;;20.37;18.27;;;16.50;93.70;;;;;;5116279;28;20442;-72
2021/06/06 01:58:15;;;;;;;23.00;19.73;;;16.50;93.70;;;;;;5115561;28;20474;-71
2021/06/06 02:00:45;;;;;;;23.93;20.13;;;16.50;93.60;;;;;;5115518;28;20920;-72
2021/06/06 02:03:12;;;;;;;22.83;20.43;;;16.50;93.40;;;;;;5116139;28;20815;-72
2021/06/06 02:05:38;;;;;;;21.10;18.97;;;16.40;93.50;;;;;;5115691;28;20507;-72
2021/06/06 02:08:09;;;;;;;23.47;21.17;;;16.50;93.70;;;;;;5115472;28;20454;-71
2021/06/06 02:10:42;;;;;;;23.40;20.57;;;16.50;93.60;;;;;;5115732;28;20431;-72
2021/06/06 02:13:13;;;;;;;26.00;21.10;;;16.50;93.30;;;;;;5115569;28;20465;-72
2021/06/06 02:15:40;;;;;;;23.27;20.40;;;16.50;93.20;;;;;;5115605;28;20435;-72
2021/06/06 02:18:08;;;;;;;23.37;20.97;;;16.50;93.20;;;;;;5115474;28;20431;-71
2021/06/06 02:20:37;;;;;;;22.37;20.07;;;16.50;93.20;;;;;;5115431;28;20500;-71
2021/06/06 02:23:04;;;;;;;22.27;19.80;;;16.50;93.00;;;;;;5115383;28;20439;-71
2021/06/06 02:25:31;;;;;;;22.83;20.43;;;16.50;93.10;;;;;;5115365;28;20464;-71
2021/06/06 02:28:08;;;;;;;23.50;21.00;;;16.40;93.00;;;;;;5115677;28;20484;-71
2021/06/06 02:30:42;;;;;;;21.70;19.70;;;16.40;93.10;;;;;;5115282;28;20427;-72
2021/06/06 02:33:14;;;;;;;21.30;19.20;;;16.30;93.20;;;;;;5115221;28;20467;-72
2021/06/06 02:35:46;;;;;;;22.40;20.10;;;16.30;93.40;;;;;;5115233;28;20427;-72
2021/06/06 02:38:17;;;;;;;20.67;18.67;;;16.30;93.60;;;;;;5115059;28;20551;-72
2021/06/06 02:40:48;;;;;;;20.70;18.60;;;16.30;93.70;;;;;;5115155;28;20438;-72
2021/06/06 02:43:20;;;;;;;23.10;19.20;;;16.30;93.70;;;;;;5115890;28;20430;-73
2021/06/06 02:45:50;;;;;;;20.00;17.77;;;16.30;93.70;;;;;;5115868;28;20766;-73
2021/06/06 02:48:24;;;;;;;24.97;20.33;;;16.30;93.90;;;;;;5114924;28;20466;-72
2021/06/06 02:50:52;;;;;;;25.27;20.63;;;16.20;93.90;;;;;;5115017;28;20428;-72
2021/06/06 02:53:22;;;;;;;21.30;19.00;;;16.20;93.90;;;;;;5114794;28;20487;-72
2021/06/06 02:55:51;;;;;;;20.40;18.30;;;16.30;93.90;;;;;;5115951;28;20515;-72
2021/06/06 02:58:22;;;;;;;21.07;18.97;;;16.30;93.90;;;;;;5114574;28;20475;-72
2021/06/06 03:00:55;;;;;;;22.20;18.80;;;16.20;94.00;;;;;;5114821;28;20525;-72
2021/06/06 03:03:26;;;;;;;24.00;19.70;;;16.20;94.10;;;;;;5114306;28;20419;-72
2021/06/06 03:05:56;;;;;;;21.47;19.17;;;16.20;94.20;;;;;;5114628;28;20456;-72
2021/06/06 03:08:23;;;;;;;21.70;19.40;;;16.20;94.30;;;;;;5114573;28;20463;-72
2021/06/06 03:10:52;;;;;;;22.43;20.03;;;16.20;94.30;;;;;;5114220;28;20442;-72
2021/06/06 03:13:23;;;;;;;24.67;22.00;;;16.20;94.40;;;;;;5114152;28;20475;-72
2021/06/06 03:15:55;;;;;;;22.53;20.33;;;16.20;94.50;;;;;;5114445;28;20423;-72
2021/06/06 03:18:22;;;;;;;23.47;20.03;;;16.10;94.70;;;;;;5114357;28;20500;-71
2021/06/06 03:20:54;;;;;;;21.77;18.80;;;16.10;95.00;;;;;;5114378;28;20443;-72
2021/06/06 03:23:25;;;;;;;21.80;19.50;;;16.10;95.20;;;;;;5114067;28;20905;-72
2021/06/06 03:25:55;;;;;;;23.93;21.53;;;16.10;95.30;;;;;;5114314;28;20424;-72
2021/06/06 03:28:27;;;;;;;21.67;19.47;;;16.00;95.40;;;;;;5114183;28;20466;-72
2021/06/06 03:30:59;;;;;;;22.93;20.53;;;16.00;95.60;;;;;;5114210;28;20423;-72
2021/06/06 03:33:41;;;;;;;23.00;20.50;;;16.00;95.70;;;;;;5114156;28;20466;-72
2021/06/06 03:36:07;;;;;;;21.90;19.70;;;16.00;95.70;;;;;;5114204;28;20427;-72
2021/06/06 03:38:33;;;;;;;22.53;20.10;;;16.00;95.90;;;;;;5113705;28;20984;-72
2021/06/06 03:40:59;;;;;;;25.40;20.90;;;16.00;96.10;;;;;;5114049;28;20446;-72
2021/06/06 03:43:26;;;;;;;21.57;19.30;;;16.00;96.10;;;;;;5114139;28;20447;-72
2021/06/06 03:45:52;;;;;;;21.53;19.40;;;16.10;96.20;;;;;;5114056;28;20465;-73
2021/06/06 03:48:20;;;;;;;23.60;20.70;;;16.10;96.00;;;;;;5113938;28;20466;-72
2021/06/06 03:50:51;;;;;;;22.93;19.00;;;16.10;96.20;;;;;;5113981;28;20840;-72
2021/06/06 03:53:18;;;;;;;22.80;20.27;;;16.10;96.10;;;;;;5113581;28;20470;-72
2021/06/06 03:55:44;;;;;;;21.47;19.17;;;16.10;96.10;;;;;;5113875;28;20454;-72
2021/06/06 03:58:11;;;;;;;25.20;20.00;;;16.10;96.30;;;;;;5113662;28;20446;-72
2021/06/06 04:00:40;;;;;;;22.83;20.50;;;16.10;96.20;;;;;;5113931;28;20431;-72
2021/06/06 04:03:07;;;;;;;22.40;20.17;;;16.20;96.30;;;;;;5113826;28;20438;-72
2021/06/06 04:05:35;;;;;;;22.50;20.23;;;16.20;96.10;;;;;;5113869;28;20470;-72
2021/06/06 04:08:02;;;;;;;22.63;20.27;;;16.20;95.80;;;;;;5113839;28;20781;-71
2021/06/06 04:10:29;;;;;;;24.00;21.30;;;16.20;95.90;;;;;;5113889;28;20442;-72
2021/06/06 04:12:55;;;;;;;25.60;20.50;;;16.20;96.10;;;;;;5113648;28;20449;-72
2021/06/06 04:15:22;;;;;;;23.23;20.87;;;16.20;95.90;;;;;;5114660;28;20428;-71
2021/06/06 04:17:48;;;;;;;27.20;22.70;;;16.10;95.80;;;;;;5118408;28;20846;-71
2021/06/06 04:20:16;;;;;;;23.23;20.80;;;16.10;96.00;;;;;;5117768;28;20529;-72
2021/06/06 04:22:44;;;;;;;23.60;21.10;;;16.20;96.10;;;;;;5117761;28;20465;-72
2021/06/06 04:25:13;;;;;;;27.13;21.50;;;16.20;95.90;;;;;;5117776;28;20461;-72
2021/06/06 04:27:39;;;;;;;25.87;23.07;;;16.20;95.70;;;;;;5117347;28;20450;-72
2021/06/06 04:30:07;;;;;;;27.80;24.70;;;16.20;95.90;;;;;;5117543;28;20473;-71
2021/06/06 04:32:34;;;;;;;25.77;23.00;;;16.20;95.90;;;;;;5117365;28;20453;-72
2021/06/06 04:35:00;;;;;;;28.77;22.40;;;16.20;95.80;;;;;;5117491;28;20852;-72
2021/06/06 04:37:26;;;;;;;26.00;23.03;;;16.30;95.80;;;;;;5117481;28;20443;-72
2021/06/06 04:39:54;;;;;;;29.23;26.37;;;16.30;95.80;;;;;;5117086;28;21004;-72
2021/06/06 04:42:21;;;;;;;28.63;23.60;;;16.30;95.50;;;;;;5117112;28;20971;-72
2021/06/06 04:44:49;;;;;;;28.53;25.50;;;16.30;95.50;;;;;;5117367;28;20785;-72
2021/06/06 04:47:16;;;;;;;26.17;23.40;;;16.20;95.60;;;;;;5116973;28;20836;-72
2021/06/06 04:49:44;;;;;;;30.00;26.27;;;16.30;95.70;;;;;;5116906;28;20466;-72
2021/06/06 04:52:13;;;;;;;30.13;26.93;;;16.30;95.70;;;;;;5116888;28;20446;-72
2021/06/06 04:54:40;;;;;;;30.00;26.77;;;16.30;95.60;;;;;;5117058;28;20470;-72
2021/06/06 04:57:08;;;;;;;30.53;27.43;;;16.30;95.60;;;;;;5116866;28;20943;-72
2021/06/06 04:59:36;;;;;;;33.93;27.63;;;16.30;95.50;;;;;;5116598;28;20851;-71
2021/06/06 05:02:02;;;;;;;32.93;29.37;;;16.30;95.60;;;;;;5116781;28;20928;-72
2021/06/06 05:04:29;;;;;;;36.10;30.47;;;16.30;95.60;;;;;;5116981;28;20438;-72
2021/06/06 05:06:55;;;;;;;35.77;32.00;;;16.30;95.50;;;;;;5116869;28;20446;-72
2021/06/06 05:09:23;;;;;;;37.90;32.70;;;16.30;95.70;;;;;;5116839;28;20462;-72
2021/06/06 05:11:49;;;;;;;34.50;30.80;;;16.20;95.80;;;;;;5116833;28;20518;-72
2021/06/06 05:14:17;;;;;;;35.37;30.80;;;16.30;96.00;;;;;;5116654;28;20816;-72
2021/06/06 05:16:43;;;;;;;41.27;33.30;;;16.30;96.10;;;;;;5116391;28;20933;-72
2021/06/06 05:19:10;;;;;;;36.30;32.00;;;16.30;96.00;;;;;;5117076;28;20474;-72
2021/06/06 05:21:36;;;;;;;37.30;33.20;;;16.30;96.00;;;;;;5116662;28;20451;-72
2021/06/06 05:24:03;;;;;;;38.40;34.30;;;16.30;95.90;;;;;;5116545;28;20443;-72
2021/06/06 05:26:30;;;;;;;39.70;35.03;;;16.30;95.70;;;;;;5116212;28;20813;-72
2021/06/06 05:28:56;;;;;;;39.70;33.03;;;16.30;95.80;;;;;;5116081;28;20988;-72
2021/06/06 05:31:24;;;;;;;41.83;34.97;;;16.30;95.80;;;;;;5116402;28;20451;-72
2021/06/06 05:33:50;;;;;;;58.53;34.80;;;16.40;95.80;;;;;;5116335;28;20478;-72
2021/06/06 05:36:17;;;;;;;45.37;34.77;;;16.40;95.70;;;;;;5116398;28;20816;-72
2021/06/06 05:38:44;;;;;;;41.33;32.87;;;16.40;95.70;;;;;;5115920;28;21003;-72
2021/06/06 05:41:10;;;;;;;43.90;33.80;;;16.40;95.60;;;;;;5116342;27;20469;-72
2021/06/06 05:43:37;;;;;;;47.30;36.33;;;16.40;95.50;;;;;;5116198;28;20797;-72
2021/06/06 05:46:15;;;;;;;42.43;34.17;;;16.50;95.50;;;;;;5115804;28;20495;-72
2021/06/06 05:48:43;;;;;;;43.00;34.10;;;16.50;95.40;;;;;;5116094;28;20458;-72
2021/06/06 05:51:10;;;;;;;40.37;34.47;;;16.40;95.40;;;;;;5116065;28;20473;-72
2021/06/06 05:53:36;;;;;;;41.33;36.80;;;16.50;95.50;;;;;;5115935;28;20555;-72
2021/06/06 05:56:04;;;;;;;38.87;34.20;;;16.50;95.50;;;;;;5115954;28;20439;-72
2021/06/06 05:58:31;;;;;;;39.20;34.20;;;16.50;95.50;;;;;;5115663;28;20483;-72
2021/06/06 06:00:58;;;;;;;43.57;35.27;;;16.60;95.50;;;;;;5115874;28;20856;-72
2021/06/06 06:03:25;;;;;;;45.33;37.07;;;16.60;95.60;;;;;;5115899;28;20458;-72
2021/06/06 06:05:54;;;;;;;46.80;37.00;;;16.70;95.10;;;;;;5115786;28;20448;-72
2021/06/06 06:08:26;;;;;;;44.17;35.57;;;16.70;95.10;;;;;;5115726;28;20896;-72
2021/06/06 06:10:54;;;;;;;48.40;38.00;;;16.70;95.10;;;;;;5115400;28;20439;-72
2021/06/06 06:13:24;;;;;;;46.53;35.20;;;16.70;95.00;;;;;;5115294;28;21008;-72
2021/06/06 06:15:51;;;;;;;46.40;36.00;;;16.80;95.00;;;;;;5115335;28;20431;-73
2021/06/06 06:18:19;;;;;;;45.30;35.70;;;16.70;94.90;;;;;;5115407;28;20475;-72
2021/06/06 06:20:45;;;;;;;43.13;34.97;;;16.70;95.00;;;;;;5115477;28;20451;-72
2021/06/06 06:23:12;;;;;;;46.30;36.40;;;16.70;95.00;;;;;;5115155;28;20480;-72
2021/06/06 06:25:39;;;;;;;49.27;37.80;;;16.70;95.00;;;;;;5115356;28;20446;-72
2021/06/06 06:28:06;;;;;;;44.60;34.80;;;16.70;94.90;;;;;;5114812;28;20446;-71
2021/06/06 06:30:36;;;;;;;46.63;36.00;;;16.70;94.90;;;;;;5115161;28;20446;-72
2021/06/06 06:33:04;;;;;;;47.27;37.70;;;16.70;95.00;;;;;;5115153;28;20431;-72
2021/06/06 06:35:30;;;;;;;47.60;38.27;;;16.70;95.30;;;;;;5114737;28;20446;-72
2021/06/06 06:37:57;;;;;;;49.77;38.33;;;16.70;95.10;;;;;;5114550;28;20491;-71
2021/06/06 06:40:26;;;;;;;49.90;38.50;;;16.70;95.20;;;;;;5115011;28;20438;-72
2021/06/06 06:42:54;;;;;;;46.40;37.63;;;16.70;95.10;;;;;;5115234;28;20450;-72
2021/06/06 06:45:24;;;;;;;51.63;38.23;;;16.70;95.20;;;;;;5114987;28;20449;-72
2021/06/06 06:47:51;;;;;;;48.43;37.40;;;16.70;95.10;;;;;;5115595;28;20439;-72
2021/06/06 06:50:19;;;;;;;57.83;38.07;;;16.70;95.10;;;;;;5114353;28;20463;-72
2021/06/06 06:52:46;;;;;;;49.27;38.23;;;16.70;95.10;;;;;;5114663;28;20465;-72
2021/06/06 06:55:16;;;;;;;49.90;38.87;;;16.70;95.00;;;;;;5114670;28;20606;-72
2021/06/06 06:57:44;;;;;;;49.87;36.97;;;16.70;95.20;;;;;;5114632;28;20447;-72
2021/06/06 07:00:15;;;;;;;46.20;37.53;;;16.70;95.10;;;;;;5114231;28;20474;-72
2021/06/06 07:02:41;;;;;;;44.60;37.47;;;16.70;95.40;;;;;;5114802;28;20431;-72
2021/06/06 07:05:09;;;;;;;46.60;33.30;;;16.80;94.90;;;;;;5114537;28;20495;-72
2021/06/06 07:07:35;;;;;;;44.13;35.17;;;16.80;94.90;;;;;;5114448;28;20496;-72
2021/06/06 07:10:03;;;;;;;40.77;33.37;;;16.80;94.70;;;;;;5114198;28;20528;-72
2021/06/06 07:12:29;;;;;;;49.27;34.57;;;16.70;94.90;;;;;;5114728;28;20453;-72
2021/06/06 07:14:57;;;;;;;45.07;37.70;;;16.70;95.00;;;;;;5114948;28;20486;-72
2021/06/06 07:17:24;;;;;;;41.30;33.97;;;16.80;95.30;;;;;;5114148;28;20940;-72
2021/06/06 07:19:51;;;;;;;34.43;30.67;;;16.90;95.20;;;;;;5114415;28;20467;-72
2021/06/06 07:22:18;;;;;;;42.53;33.03;;;16.90;94.70;;;;;;5114426;28;20442;-72
2021/06/06 07:24:45;;;;;;;37.53;31.13;;;16.80;94.60;;;;;;5114258;28;20446;-72
2021/06/06 07:27:12;;;;;;;38.00;29.70;;;16.80;94.80;;;;;;5114222;28;20531;-72
2021/06/06 07:29:39;;;;;;;37.83;33.67;;;16.80;94.70;;;;;;5114169;28;20825;-72
2021/06/06 07:32:07;;;;;;;39.10;31.50;;;16.90;94.70;;;;;;5113920;28;20555;-72
2021/06/06 07:34:33;;;;;;;35.90;31.77;;;16.90;94.60;;;;;;5114116;28;20486;-72
2021/06/06 07:37:04;;;;;;;40.07;30.07;;;17.00;94.60;;;;;;5114130;28;20446;-72
2021/06/06 07:39:30;;;;;;;41.20;31.83;;;17.00;94.50;;;;;;5113987;28;20534;-72
2021/06/06 07:41:58;;;;;;;33.43;29.90;;;17.10;94.00;;;;;;5114100;28;20431;-72
2021/06/06 07:44:25;;;;;;;31.27;27.73;;;17.10;94.40;;;;;;5113673;28;20446;-72
2021/06/06 07:46:51;;;;;;;33.33;29.50;;;17.20;94.10;;;;;;5114045;28;20476;-72
2021/06/06 07:49:19;;;;;;;30.97;27.67;;;17.30;94.00;;;;;;5113872;28;20474;-72
2021/06/06 07:51:45;;;;;;;33.70;29.70;;;17.30;93.50;;;;;;5113942;28;20815;-72
2021/06/06 07:54:12;;;;;;;35.20;29.97;;;17.40;93.60;;;;;;5113524;28;20988;-72
2021/06/06 07:56:38;;;;;;;35.63;31.70;;;17.40;93.80;;;;;;5113990;28;20427;-72
2021/06/06 07:59:05;;;;;;;41.43;32.23;;;17.40;93.70;;;;;;5113479;28;20482;-72
2021/06/06 08:01:31;;;;;;;36.20;31.00;;;17.40;93.40;;;;;;5113516;28;20451;-72
2021/06/06 08:03:59;;;;;;;36.50;32.03;;;17.40;93.40;;;;;;5113908;28;20431;-72
2021/06/06 08:06:27;;;;;;;36.80;31.33;;;17.50;93.50;;;;;;5113841;28;20435;-72
2021/06/06 08:08:53;;;;;;;36.60;30.90;;;17.50;93.40;;;;;;5113699;28;20470;-72
2021/06/06 08:11:20;;;;;;;33.27;29.77;;;17.60;93.20;;;;;;5113808;28;20450;-72
2021/06/06 08:13:47;;;;;;;33.80;30.37;;;17.80;92.90;;;;;;5113450;28;20467;-72
2021/06/06 08:16:13;;;;;;;31.90;28.50;;;18.00;92.70;;;;;;5113702;28;20475;-72
2021/06/06 08:18:42;;;;;;;30.93;27.73;;;18.20;91.90;;;;;;5113397;28;21047;-72
2021/06/06 08:21:11;;;;;;;30.03;26.90;;;18.30;91.40;;;;;;5113689;28;20443;-72
2021/06/06 08:23:40;;;;;;;29.40;26.50;;;18.50;91.20;;;;;;5113751;28;20431;-72
2021/06/06 08:26:07;;;;;;;27.70;24.97;;;18.60;90.70;;;;;;5113353;28;20932;-72
2021/06/06 08:28:34;;;;;;;27.57;24.77;;;18.60;90.00;;;;;;5113585;28;20832;-72
2021/06/06 08:31:02;;;;;;;29.13;26.23;;;18.60;90.10;;;;;;5113567;28;20446;-72
2021/06/06 08:33:31;;;;;;;29.43;26.40;;;18.70;89.80;;;;;;5113492;28;20475;-72
2021/06/06 08:36:00;;;;;;;27.77;24.80;;;18.80;89.90;;;;;;5113570;28;20446;-72
2021/06/06 08:38:28;;;;;;;27.33;24.43;;;18.90;89.70;;;;;;5113433;28;20502;-72
2021/06/06 08:40:59;;;;;;;27.17;24.17;;;18.80;88.80;;;;;;5113557;28;20426;-72
2021/06/06 08:43:37;;;;;;;24.60;22.10;;;18.80;88.40;;;;;;5113188;28;20984;-72
2021/06/06 08:46:03;;;;;;;31.43;25.40;;;18.80;89.50;;;;;;5113305;28;20426;-72
2021/06/06 08:48:30;;;;;;;28.37;25.57;;;18.80;89.40;;;;;;5113417;28;20465;-72
2021/06/06 08:51:06;;;;;;;25.87;23.07;;;18.90;88.70;;;;;;5113418;28;20453;-72
2021/06/06 08:53:37;;;;;;;27.17;24.27;;;18.80;89.00;;;;;;5113414;28;20458;-72
2021/06/06 08:56:17;;;;;;;27.40;24.43;;;18.80;88.40;;;;;;5113063;28;21014;-72
2021/06/06 08:58:47;;;;;;;26.80;24.03;;;18.90;89.20;;;;;;5112855;28;21000;-72
2021/06/06 09:01:20;;;;;;;29.73;24.90;;;18.90;88.20;;;;;;5113796;28;20820;-72
2021/06/06 09:03:48;;;;;;;27.47;24.60;;;19.00;89.10;;;;;;5117457;28;20446;-72
2021/06/06 09:06:18;;;;;;;27.30;23.83;;;19.00;87.30;;;;;;5116928;28;20447;-72
2021/06/06 09:08:44;;;;;;;29.13;26.03;;;18.90;86.90;;;;;;5116865;28;20956;-72
2021/06/06 09:11:17;;;;;;;28.10;25.13;;;18.90;87.70;;;;;;5116943;28;20428;-72
2021/06/06 09:13:43;;;;;;;28.97;25.60;;;19.10;88.50;;;;;;5116843;28;20471;-72
2021/06/06 09:16:17;;;;;;;26.50;23.67;;;19.30;88.90;;;;;;5116755;28;20451;-72
2021/06/06 09:18:46;;;;;;;26.17;23.37;;;19.40;86.60;;;;;;5116708;28;20564;-72
2021/06/06 09:21:17;;;;;;;25.80;22.77;;;19.60;86.80;;;;;;5116400;28;20952;-72
2021/06/06 09:23:45;;;;;;;26.47;23.23;;;19.80;86.60;;;;;;5116684;28;20427;-73
2021/06/06 09:26:21;;;;;;;26.63;23.83;;;19.90;85.70;;;;;;5116643;28;20446;-73
2021/06/06 09:28:49;;;;;;;26.23;23.20;;;19.80;83.60;;;;;;5117425;28;20475;-74
2021/06/06 09:31:22;;;;;;;26.17;22.93;;;19.70;83.80;;;;;;5116497;27;20447;-74
2021/06/06 09:33:59;;;;;;;22.83;20.63;;;19.70;85.40;;;;;;5116390;28;20462;-74
2021/06/06 09:36:27;;;;;;;27.80;23.60;;;19.80;84.70;;;;;;5117078;28;20562;-74
2021/06/06 09:38:56;;;;;;;25.57;22.73;;;20.00;85.40;;;;;;5115968;28;20981;-73
2021/06/06 09:41:33;;;;;;;21.97;19.77;;;20.00;83.60;;;;;;5116286;28;20446;-73
2021/06/06 09:44:03;;;;;;;23.17;20.67;;;20.10;83.90;;;;;;5115962;28;20956;-74
2021/06/06 09:46:42;;;;;;;23.07;20.83;;;20.20;84.10;;;;;;5116257;28;20427;-74
2021/06/06 09:49:14;;;;;;;24.23;21.73;;;20.10;82.50;;;;;;5116150;28;20553;-73
2021/06/06 09:51:40;;;;;;;21.83;19.50;;;20.10;82.60;;;;;;5115986;28;20909;-74
2021/06/06 09:54:09;;;;;;;21.87;19.77;;;20.20;83.20;;;;;;5115981;28;20892;-74
2021/06/06 09:56:37;;;;;;;23.83;20.83;;;20.20;83.50;;;;;;5116011;28;20439;-74
2021/06/06 09:59:15;;;;;;;26.00;23.30;;;20.30;82.10;;;;;;5115610;28;20505;-75
2021/06/06 10:01:51;;;;;;;23.80;21.37;;;20.30;82.00;;;;;;5115931;28;20435;-73
2021/06/06 10:04:20;;;;;;;25.07;22.50;;;20.30;82.00;;;;;;5116063;28;20440;-73
2021/06/06 10:06:49;;;;;;;22.47;20.20;;;20.30;82.30;;;;;;5115622;28;20464;-73
2021/06/06 10:09:26;;;;;;;24.03;21.63;;;20.50;83.20;;;;;;5115873;28;20466;-73
2021/06/06 10:12:00;;;;;;;24.93;22.43;;;20.50;81.90;;;;;;5116493;28;20521;-73
2021/06/06 10:14:31;;;;;;;24.13;21.60;;;20.50;81.40;;;;;;5114816;27;20861;-74
2021/06/06 10:17:02;;;;;;;21.80;19.40;;;20.50;81.70;;;;;;5115993;28;20485;-73
2021/06/06 10:19:34;;;;;;;25.57;20.87;;;20.50;81.80;;;;;;5115757;28;20521;-73
2021/06/06 10:22:05;;;;;;;25.97;20.77;;;20.50;80.90;;;;;;5116494;28;20436;-73
2021/06/06 10:24:36;;;;;;;23.80;21.10;;;20.50;80.60;;;;;;5116824;28;20431;-73
2021/06/06 10:27:10;;;;;;;23.57;21.17;;;20.50;81.20;;;;;;5116317;28;20408;-73
2021/06/06 10:29:41;;;;;;;22.33;20.03;;;20.50;81.50;;;;;;5115861;28;20466;-73
2021/06/06 10:32:17;;;;;;;23.77;21.33;;;20.40;80.30;;;;;;5115623;28;20794;-73
2021/06/06 10:34:49;;;;;;;22.10;19.97;;;20.30;80.90;;;;;;5115954;28;20567;-73
2021/06/06 10:37:16;;;;;;;19.77;17.83;;;20.30;81.90;;;;;;5115295;28;20443;-73
2021/06/06 10:39:54;;;;;;;22.13;19.93;;;20.40;81.70;;;;;;5115093;28;20471;-73
2021/06/06 10:42:29;;;;;;;21.20;19.10;;;20.50;81.70;;;;;;5114933;28;20905;-73
2021/06/06 10:45:06;;;;;;;22.50;20.17;;;20.50;81.80;;;;;;5115168;28;20493;-73
2021/06/06 10:47:40;;;;;;;21.60;19.47;;;20.50;80.40;;;;;;5115092;28;20513;-73
2021/06/06 10:50:16;;;;;;;21.93;19.70;;;20.50;81.20;;;;;;5114912;28;20462;-73
2021/06/06 10:52:43;;;;;;;21.73;19.53;;;20.60;81.10;;;;;;5114977;28;20431;-73
2021/06/06 10:55:27;;;;;;;23.73;21.30;;;20.60;80.90;;;;;;5115098;28;20475;-73
2021/06/06 10:57:56;;;;;;;21.20;19.13;;;20.60;81.00;;;;;;5114931;28;20439;-73
2021/06/06 11:00:30;;;;;;;24.47;21.97;;;20.70;80.90;;;;;;5114514;28;20907;-73
2021/06/06 11:03:01;;;;;;;22.17;19.87;;;20.70;79.40;;;;;;5114871;28;20435;-73
2021/06/06 11:05:38;;;;;;;23.03;20.57;;;20.80;79.80;;;;;;5114797;28;20498;-74
2021/06/06 11:08:19;;;;;;;23.60;19.00;;;20.90;79.60;;;;;;5114782;28;20423;-73
2021/06/06 11:10:46;;;;;;;20.43;18.20;;;21.00;79.90;;;;;;5114689;28;20811;-73
2021/06/06 11:13:30;;;;;;;22.40;20.23;;;21.20;79.40;;;;;;5114603;28;20423;-73
2021/06/06 11:15:59;;;;;;;22.03;19.83;;;21.30;78.50;;;;;;5114709;28;20427;-74
2021/06/06 11:18:27;;;;;;;21.60;19.50;;;21.50;78.10;;;;;;5114448;28;20889;-73
2021/06/06 11:20:59;;;;;;;20.40;18.50;;;21.60;76.10;;;;;;5114418;28;20446;-73
2021/06/06 11:23:35;;;;;;;22.50;20.20;;;21.70;76.00;;;;;;5114473;27;20490;-73
2021/06/06 11:26:17;;;;;;;22.47;20.37;;;21.60;76.40;;;;;;5113906;28;20458;-73
2021/06/06 11:28:45;;;;;;;23.33;20.90;;;21.50;76.90;;;;;;5114330;28;20471;-73
2021/06/06 11:31:25;;;;;;;21.03;18.97;;;21.60;76.40;;;;;;5114447;28;20817;-73
2021/06/06 11:34:01;;;;;;;21.90;19.80;;;21.70;77.60;;;;;;5114046;28;20972;-73
2021/06/06 11:36:33;;;;;;;23.10;20.70;;;22.00;76.10;;;;;;5113973;28;20908;-72
2021/06/06 11:39:13;;;;;;;22.63;20.43;;;22.20;75.00;;;;;;5113850;28;20968;-71
2021/06/06 11:41:42;;;;;;;22.67;20.57;;;22.30;74.60;;;;;;5113895;28;20928;-72
2021/06/06 11:44:21;;;;;;;23.07;20.67;;;22.20;72.80;;;;;;5114139;28;20487;-72
2021/06/06 11:46:54;;;;;;;21.27;19.07;;;22.10;74.80;;;;;;5113781;28;20927;-71
2021/06/06 11:49:33;;;;;;;21.47;19.27;;;22.20;74.50;;;;;;5114013;28;20508;-71
2021/06/06 11:52:07;;;;;;;21.50;19.50;;;22.20;74.10;;;;;;5113700;28;20475;-71
2021/06/06 11:54:39;;;;;;;22.60;20.33;;;22.30;72.80;;;;;;5113929;28;20466;-71
2021/06/06 11:57:08;;;;;;;22.20;19.90;;;22.40;73.00;;;;;;5113639;28;20908;-71
2021/06/06 11:59:42;;;;;;;22.53;20.40;;;22.40;72.10;;;;;;5113602;28;20482;-71
2021/06/06 12:02:11;;;;;;;20.13;18.23;;;22.50;72.70;;;;;;5113985;28;20484;-71
2021/06/06 12:04:40;;;;;;;23.00;20.73;;;22.70;73.20;;;;;;5113956;28;20446;-71
2021/06/06 12:07:13;;;;;;;24.13;21.70;;;22.80;71.50;;;;;;5113626;28;20458;-71
2021/06/06 12:09:43;;;;;;;23.27;20.97;;;22.80;70.80;;;;;;5113822;28;20520;-71
2021/06/06 12:12:14;;;;;;;22.60;20.43;;;22.80;71.00;;;;;;5113882;28;20479;-72
2021/06/06 12:14:42;;;;;;;22.17;19.90;;;22.80;69.50;;;;;;5113792;28;20466;-72
2021/06/06 12:17:22;;;;;;;22.73;20.43;;;22.70;70.40;;;;;;5113584;28;20897;-71
2021/06/06 12:19:52;;;;;;;20.77;18.80;;;22.60;71.50;;;;;;5113673;28;20462;-71
2021/06/06 12:22:30;;;;;;;21.97;19.80;;;22.60;71.30;;;;;;5113777;28;20796;-71
2021/06/06 12:25:07;;;;;;;22.60;20.50;;;22.50;72.90;;;;;;5113711;28;20415;-71
2021/06/06 12:27:38;;;;;;;23.20;20.93;;;22.60;72.40;;;;;;5113652;28;20435;-71
2021/06/06 12:30:18;;;;;;;22.73;20.43;;;22.60;70.60;;;;;;5113270;28;20644;-71
2021/06/06 12:32:51;;;;;;;23.27;21.07;;;22.50;71.90;;;;;;5113345;28;20908;-71
2021/06/06 12:35:21;;;;;;;22.80;20.00;;;22.50;71.80;;;;;;5113132;28;20976;-71
2021/06/06 12:37:49;;;;;;;22.80;20.63;;;22.50;72.30;;;;;;5116583;28;20810;-71
2021/06/06 12:40:17;;;;;;;23.93;21.50;;;22.50;71.60;;;;;;5117358;28;20458;-71